Oslo Airport, Norway

6:17 PM CEST on September 17, 2014 (GMT +0200)
Gardermoen | Change Station
CLOSE
Current Station
Airport
Location: Oslo Airport,
Elevation: 679 ft
Nearby Weather Stations

Elev 679 ft 60.21 °N, 11.08 °E | Updated 27 minutes ago

Partly Cloudy
Partly Cloudy
63 °F
Feels Like 63 °F
N
4
Wind Variable Wind from Variable

Today
High -- | Low -- °F
--% Chance of Precip.
Yesterday
High -- | Low -- °F
Precip. -- in
6:47 AM 7:31 PM
Waning Crescent, 35% visible
Pressure 30.21 in
Visibility 6.2 miles
Clouds Few 4400 ft
Dew Point 43 °F
Humidity 48%
Rainfall 0.00 in
Snow Depth Not available.
UV 1 out of 12
Pollen Not available.
Air Quality Not available.
Flu Activity Not available.
METAR ENGM 171550Z VRB03KT 9999 FEW044 17/06 Q1023 NOSIG

More Conditions Fewer Conditions

Pressure 30.21 in
Visibility 6.2 miles
Clouds Few 4400 ft
Dew Point 43 °F
Humidity 48%
Rainfall 0.00 in
Snow Depth Not available.
UV 1 out of 12
Pollen Not available.
Air Quality Not available.
Flu Activity Not available.
METAR ENGM 171550Z VRB03KT 9999 FEW044 17/06 Q1023 NOSIG

More Conditions Fewer Conditions

10-Day Weather Forecast

Almanac

Astronomy

Sep. 17, 2014 Rise Set
Actual Time 6:47 AM CEST 7:31 PM CEST
Civil Twilight 6:05 AM CEST 8:13 PM CEST
Nautical Twilight 5:13 AM CEST 9:05 PM CEST
Astronomical Twilight 4:14 AM CEST 10:02 PM CEST
Moon No Moon Rise 4:34 PM CEST
Length of Visible Light 14h 08m
Length of Day
12h 43m
Tomorrow will be 5m 26s shorter.
Waning Crescent, 35% of the Moon is Illuminated
Today
Waning Crescent
Sep 24
New
Oct 1
First Quarter
Oct 8
Full
Oct 15
Last Quarter

Today's Extremes

Country Highs Country Lows

Community

WunderPhotos

Upload Photos

1,754,091 photos uploaded!

Nearby

Snow Depth

Not available.

Earthquake Activity

City Distance Mag. Time & Date
No recent earthquake activity has been reported nearby.
Minimum magnitude displayed is 2.5.

Coastal Water Temperatures

Place Temperature
No Stations Reporting

Nearby Weather Stations